Hauptseite
METAR-TAF:

METAR-TAF

Flughäfen :

Bristol, England

Bristol Airport

Breite: 51-23N, Länge: 002-43W, Höhe: 189 m

Beobachtung

Neuester Wetterbericht von vor 18 Minuten, um 01:20 UTC
Wind 11 kt aus Ost/Nordost
Temperatur -1°C
Luftfeuchtigkeit 86%
Luftdruck 1023 hPa
Sichtweite 10 km oder mehr

METAR: EGGD 250120Z AUTO 06011KT 9999 NCD M01/M03 Q1023

Zeit: 01:38 (01:38 UTC)

Prognose

Neuester Wetterbericht von vor 2 Stunden und 46 Minuten, um 22:52 UTC
Gültige Prognose vom 25 um 00 UTC bis 25 um 24 UTC
Wind 12 kt aus Ost
Sichtweite 10 km oder mehr
keine Wolken unter 1500 m und keine Kumulonimbus oder Gewitterwolken
Wahrscheinlichkeit 40% :
Zeitweise
vom 25 um 06 UTC bis 25 um 16 UTC
Wind 15 kt aus Ost/Nordost, Böen bis zu 25 kt

TAF: EGGD 242252Z 2500/2524 08012KT CAVOK PROB40 TEMPO 2506/2516 07015G25KT

Wetterbeobachtungen und Prognosen von mehr als 4000 Flughäfen (METAR und TAF Bericht).

Die verfügbaren Stationen werden durch gelbe und rote Markierungen auf der Karte dargestellt.

Führen Sie die Maus auf sie, um den Namen der Station zu sehen.

Darauf klicken, um die Beobachtung von Wetterbeobachtungen und Prognosen zu sehen.

Um die Karte zu ändern : klicken Sie auf den grünen Tasten mit einem schwarzen Kreuz Zum Vergrößern, auf den grünen Button mit einem Gedankenstrich zu verkleinern, oder auf die grünen Pfeile für benachbarte Karten.


METAR-TAF: